Mill City, Oregon
Current Conditions -  °F | °C
As of 3:56 PM on Saturday 25 Oct 2014 (Local Time) from KSLE Reporting Station
Light Rain Light Rain  
Wind Chill: 58°   Ceiling: 3500
Heat Index: 58°   Visibility: 5mi
Dew Point: 53°   Wind: 23mph
Humidity: 84%   Direction: 190°S
Pressure: 29.46"   Gusts: 47mph
Location:  44.75°N, 122.48°W
Report Text: KSLE 252256Z 19020G41KT 5SM -RA SCT024 OVC035 14/12 A2946 RMK AO2 PK WND 18041/2250 RAB2157 SLP977 P0001 T01440117
Loading
Personal Weather Stations






























Interactive Weather Map
Tropical Storm Tracking
New forecast layout! Learn more

10-Day Weather Forecast

Advertisements
Track Severe Weather on mobile